Time;durP1;ratioP1;P1;durP2;ratioP2;P2;SDS_P1;SDS_P2;PMS_P1;PMS_P2;Temp;Humidity;BMP_temperature;BMP_pressure;BME280_temperature;BME280_humidity;BME280_pressure;Samples;Min_cycle;Max_cycle;Signal;HPM_P1;HPM_P2
2022/10/20 00:01:26;;;;;;;8.73;5.70;;;13.10;99.90;;;;;;5028634;28;20216;-73
2022/10/20 00:03:54;;;;;;;8.97;6.60;;;13.10;99.90;;;;;;5015451;28;20213;-73
2022/10/20 00:06:22;;;;;;;8.73;5.90;;;13.00;99.90;;;;;;5019292;28;20481;-74
2022/10/20 00:08:48;;;;;;;9.13;6.17;;;13.00;99.90;;;;;;4986079;28;20463;-73
2022/10/20 00:11:17;;;;;;;6.93;5.57;;;13.00;99.90;;;;;;5016128;28;20459;-73
2022/10/20 00:13:45;;;;;;;9.73;6.80;;;12.90;99.90;;;;;;5019763;28;20455;-74
2022/10/20 00:16:12;;;;;;;8.47;6.67;;;12.90;99.90;;;;;;5015747;28;20455;-74
2022/10/20 00:18:38;;;;;;;7.97;5.97;;;12.90;99.90;;;;;;5004309;28;20569;-74
2022/10/20 00:21:11;;;;;;;6.73;6.03;;;12.80;99.90;;;;;;5010023;28;20466;-73
2022/10/20 00:23:37;;;;;;;8.57;6.30;;;12.80;99.90;;;;;;5012738;28;20462;-73
2022/10/20 00:26:06;;;;;;;7.07;4.97;;;12.80;99.90;;;;;;5028891;28;20470;-73
2022/10/20 00:28:32;;;;;;;8.83;6.30;;;12.80;99.90;;;;;;5022973;28;20222;-73
2022/10/20 00:30:58;;;;;;;8.33;5.70;;;12.80;99.90;;;;;;5023908;28;20986;-74
2022/10/20 00:33:25;;;;;;;10.07;5.73;;;12.80;99.90;;;;;;5009755;28;20462;-73
2022/10/20 00:35:51;;;;;;;10.33;7.57;;;12.80;99.90;;;;;;5004033;28;20444;-74
2022/10/20 00:38:17;;;;;;;7.53;6.40;;;12.70;99.90;;;;;;5020303;28;20522;-73
2022/10/20 00:40:43;;;;;;;9.00;5.87;;;12.70;99.90;;;;;;5005205;28;20458;-73
2022/10/20 00:43:13;;;;;;;8.00;6.00;;;12.70;99.90;;;;;;5022275;28;20519;-74
2022/10/20 00:45:40;;;;;;;6.30;5.30;;;12.70;99.90;;;;;;5037160;28;20220;-73
2022/10/20 00:48:13;;;;;;;8.37;5.83;;;12.60;99.90;;;;;;5017603;28;20537;-73
2022/10/20 00:50:44;;;;;;;8.07;5.47;;;12.60;99.90;;;;;;5032401;28;20447;-73
2022/10/20 00:53:11;;;;;;;11.03;5.73;;;12.60;99.90;;;;;;5006577;28;20460;-73
2022/10/20 00:55:41;;;;;;;9.27;5.73;;;12.60;99.90;;;;;;5016713;28;20876;-73
2022/10/20 00:58:07;;;;;;;7.87;5.70;;;12.60;99.90;;;;;;5020272;28;20508;-73
2022/10/20 01:00:36;;;;;;;9.77;5.90;;;12.60;99.90;;;;;;5005413;28;20538;-73
2022/10/20 01:03:02;;;;;;;5.53;4.63;;;12.60;99.90;;;;;;5026853;28;20448;-73
2022/10/20 01:05:28;;;;;;;5.93;5.10;;;12.50;99.90;;;;;;5016624;28;20475;-73
2022/10/20 01:07:54;;;;;;;7.27;5.30;;;12.60;99.90;;;;;;5031281;28;20533;-73
2022/10/20 01:10:21;;;;;;;7.00;5.97;;;12.60;99.90;;;;;;5011451;28;20698;-73
2022/10/20 01:12:56;;;;;;;6.00;5.40;;;12.50;99.90;;;;;;5015911;28;20216;-73
2022/10/20 01:15:27;;;;;;;9.60;5.57;;;12.50;99.90;;;;;;5012867;28;20479;-73
2022/10/20 01:17:58;;;;;;;5.73;5.10;;;12.50;99.90;;;;;;5027269;28;20486;-73
2022/10/20 01:20:43;;;;;;;9.10;5.70;;;12.50;99.90;;;;;;4994538;28;20832;-73
2022/10/20 01:23:36;;;;;;;6.03;5.43;;;12.50;99.90;;;;;;5032748;28;20554;-74
2022/10/20 01:26:40;;;;;;;6.13;4.97;;;12.50;99.90;;;;;;5017146;28;20466;-73
2022/10/20 01:29:20;;;;;;;5.40;4.90;;;12.40;99.90;;;;;;5022337;28;20458;-73
2022/10/20 01:32:01;;;;;;;7.63;5.97;;;12.40;99.90;;;;;;5022711;28;20455;-74
2022/10/20 01:34:31;;;;;;;8.67;5.63;;;12.40;99.90;;;;;;5035089;28;20456;-73
2022/10/20 01:37:15;;;;;;;6.97;5.13;;;12.40;99.90;;;;;;5016405;28;20483;-73
2022/10/20 01:40:10;;;;;;;9.40;5.30;;;12.40;99.90;;;;;;5032605;28;20485;-73
2022/10/20 01:42:38;;;;;;;7.47;5.33;;;12.40;99.90;;;;;;5005209;28;20447;-73
2022/10/20 01:45:06;;;;;;;5.43;4.87;;;12.40;99.90;;;;;;5029349;28;20505;-74
2022/10/20 01:47:34;;;;;;;5.47;4.97;;;12.30;99.90;;;;;;5030642;28;20463;-74
2022/10/20 01:50:03;;;;;;;5.80;4.33;;;12.30;99.90;;;;;;5015295;28;20977;-74
2022/10/20 01:52:29;;;;;;;5.53;5.03;;;12.30;99.90;;;;;;5004948;28;20452;-73
2022/10/20 01:54:54;;;;;;;8.03;5.63;;;12.30;99.90;;;;;;5002536;28;20452;-73
2022/10/20 01:57:35;;;;;;;6.43;4.67;;;12.30;99.90;;;;;;4997807;28;20893;-73
2022/10/20 02:00:10;;;;;;;7.50;4.30;;;12.30;99.90;;;;;;5014862;28;20661;-73
2022/10/20 02:02:54;;;;;;;7.97;6.13;;;12.30;99.90;;;;;;5005988;28;20443;-73
2022/10/20 02:05:26;;;;;;;5.70;5.10;;;12.20;99.90;;;;;;5014660;28;20837;-73
2022/10/20 02:08:04;;;;;;;6.30;5.50;;;12.20;99.90;;;;;;5033261;28;20598;-74
2022/10/20 02:10:41;;;;;;;9.70;5.47;;;12.20;99.90;;;;;;5027135;28;20460;-74
2022/10/20 02:13:10;;;;;;;7.07;4.67;;;12.10;99.90;;;;;;5000232;28;21038;-73
2022/10/20 02:15:39;;;;;;;6.70;5.20;;;12.10;99.90;;;;;;5036989;28;20501;-73
2022/10/20 02:18:08;;;;;;;5.53;4.70;;;12.10;99.90;;;;;;5006366;28;20470;-73
2022/10/20 02:20:34;;;;;;;6.43;5.17;;;12.10;99.90;;;;;;5011617;28;20485;-73
2022/10/20 02:23:03;;;;;;;7.30;5.70;;;12.10;99.90;;;;;;5004960;28;20458;-73
2022/10/20 02:25:30;;;;;;;8.90;5.17;;;12.10;99.90;;;;;;5014901;28;20438;-73
2022/10/20 02:27:59;;;;;;;8.27;5.57;;;12.10;99.90;;;;;;5012198;28;20594;-73
2022/10/20 02:30:24;;;;;;;11.10;5.27;;;12.10;99.90;;;;;;5017010;28;20459;-73
2022/10/20 02:32:51;;;;;;;5.33;4.80;;;12.10;99.90;;;;;;5014877;28;20462;-73
2022/10/20 02:35:20;;;;;;;7.53;5.17;;;12.00;99.90;;;;;;5018700;28;20299;-73
2022/10/20 02:37:46;;;;;;;7.43;4.57;;;12.10;99.90;;;;;;5019466;28;20464;-74
2022/10/20 02:40:12;;;;;;;6.10;4.93;;;12.00;99.90;;;;;;4994466;28;20455;-73
2022/10/20 02:42:39;;;;;;;7.03;5.07;;;12.00;99.90;;;;;;5025733;28;20239;-73
2022/10/20 02:45:06;;;;;;;7.67;4.93;;;12.00;99.90;;;;;;5038560;28;20469;-73
2022/10/20 02:47:32;;;;;;;6.57;4.80;;;12.00;99.90;;;;;;5010514;28;20462;-73
2022/10/20 02:49:58;;;;;;;6.20;4.90;;;12.00;99.90;;;;;;5008526;28;20451;-73
2022/10/20 02:52:24;;;;;;;6.90;4.93;;;12.00;99.90;;;;;;5010509;28;21045;-73
2022/10/20 02:54:50;;;;;;;7.50;4.97;;;12.00;99.90;;;;;;5008971;28;20261;-73
2022/10/20 02:57:15;;;;;;;5.67;4.73;;;12.00;99.90;;;;;;5003896;28;20217;-73
2022/10/20 02:59:41;;;;;;;8.00;5.00;;;12.00;99.90;;;;;;5010787;28;20219;-72
2022/10/20 03:02:07;;;;;;;5.70;4.70;;;11.90;99.90;;;;;;5014260;28;20223;-72
2022/10/20 03:04:32;;;;;;;9.40;5.27;;;11.90;99.90;;;;;;5005494;28;20224;-73
2022/10/20 03:06:58;;;;;;;7.47;5.10;;;11.90;99.90;;;;;;5027793;28;20213;-73
2022/10/20 03:09:24;;;;;;;5.93;4.30;;;11.90;99.90;;;;;;5027345;28;20235;-73
2022/10/20 03:11:50;;;;;;;5.80;4.87;;;11.90;99.90;;;;;;5036077;28;20225;-73
2022/10/20 03:14:15;;;;;;;6.60;5.53;;;11.90;99.90;;;;;;5015645;28;20230;-73
2022/10/20 03:16:41;;;;;;;5.97;4.70;;;11.80;99.90;;;;;;5017404;28;20221;-73
2022/10/20 03:19:07;;;;;;;5.57;5.07;;;11.80;99.90;;;;;;5011486;28;20305;-73
2022/10/20 03:21:33;;;;;;;5.97;4.33;;;11.80;99.90;;;;;;5007522;28;20625;-73
2022/10/20 03:23:59;;;;;;;6.73;5.33;;;11.80;99.90;;;;;;5003086;28;20220;-73
2022/10/20 03:26:24;;;;;;;6.40;5.47;;;11.80;99.90;;;;;;5030761;28;20231;-72
2022/10/20 03:28:50;;;;;;;10.37;5.60;;;11.80;99.90;;;;;;5012757;28;20319;-74
2022/10/20 03:31:16;;;;;;;6.77;5.50;;;11.70;99.90;;;;;;5019524;28;20223;-73
2022/10/20 03:33:42;;;;;;;7.87;5.10;;;11.70;99.90;;;;;;5025414;28;20296;-73
2022/10/20 03:36:08;;;;;;;8.53;5.60;;;11.70;99.90;;;;;;5023435;28;20230;-73
2022/10/20 03:38:34;;;;;;;7.93;5.10;;;11.70;99.90;;;;;;5010908;28;20221;-73
2022/10/20 03:41:00;;;;;;;6.40;4.77;;;11.70;99.90;;;;;;4999608;28;21061;-73
2022/10/20 03:43:25;;;;;;;7.60;5.67;;;11.60;99.90;;;;;;5019839;28;20458;-73
2022/10/20 03:46:04;;;;;;;6.63;5.50;;;11.60;99.90;;;;;;5010376;28;20224;-73
2022/10/20 03:48:30;;;;;;;6.90;5.27;;;11.60;99.90;;;;;;5023598;28;20232;-73
2022/10/20 03:50:56;;;;;;;5.80;5.20;;;11.60;99.90;;;;;;5008199;28;20451;-73
2022/10/20 03:53:21;;;;;;;7.60;4.60;;;11.60;99.90;;;;;;5015961;28;20514;-73
2022/10/20 03:55:47;;;;;;;19.20;5.90;;;11.60;99.90;;;;;;5033284;28;20222;-73
2022/10/20 03:58:13;;;;;;;6.93;5.10;;;11.60;99.90;;;;;;5013617;28;20220;-74
2022/10/20 04:00:39;;;;;;;7.93;4.87;;;11.60;99.90;;;;;;5023797;28;20212;-74
2022/10/20 04:03:05;;;;;;;8.33;6.07;;;11.60;99.90;;;;;;5018844;28;20471;-73
2022/10/20 04:05:31;;;;;;;5.53;4.73;;;11.60;99.90;;;;;;5041991;28;20224;-73
2022/10/20 04:07:57;;;;;;;7.50;5.23;;;11.60;99.90;;;;;;5022816;28;20228;-73
2022/10/20 04:10:22;;;;;;;7.40;5.13;;;11.60;99.90;;;;;;5025319;28;20470;-73
2022/10/20 04:12:48;;;;;;;8.10;5.30;;;11.60;99.90;;;;;;5008280;28;20217;-73
2022/10/20 04:15:14;;;;;;;6.80;5.47;;;11.60;99.90;;;;;;5020377;28;20224;-72
2022/10/20 04:17:40;;;;;;;5.67;4.80;;;11.60;99.90;;;;;;5033397;28;20232;-73
2022/10/20 04:20:07;;;;;;;7.77;5.80;;;11.60;99.90;;;;;;5013210;28;20302;-73
2022/10/20 04:22:32;;;;;;;6.07;5.47;;;11.60;99.90;;;;;;4999402;28;20939;-72
2022/10/20 04:24:58;;;;;;;7.50;4.90;;;11.60;99.90;;;;;;5002397;28;20506;-73
2022/10/20 04:27:24;;;;;;;6.03;5.20;;;11.60;99.90;;;;;;5020878;28;20280;-72
2022/10/20 04:29:50;;;;;;;7.00;5.57;;;11.50;99.90;;;;;;5042600;28;20220;-71
2022/10/20 04:32:15;;;;;;;8.30;6.20;;;11.50;99.90;;;;;;5051684;28;20649;-71
2022/10/20 04:34:41;;;;;;;10.23;6.50;;;11.50;99.90;;;;;;5002773;28;20209;-72
2022/10/20 04:37:06;;;;;;;8.90;5.80;;;11.50;99.90;;;;;;5017283;28;20764;-71
2022/10/20 04:39:32;;;;;;;9.83;6.00;;;11.50;99.90;;;;;;4999832;28;20213;-71
2022/10/20 04:41:58;;;;;;;10.90;6.70;;;11.50;99.90;;;;;;4997482;28;20225;-72
2022/10/20 04:44:24;;;;;;;7.23;5.90;;;11.50;99.90;;;;;;5028330;28;20208;-71
2022/10/20 04:46:50;;;;;;;7.80;6.00;;;11.50;99.90;;;;;;5013512;28;20447;-72
2022/10/20 04:49:15;;;;;;;7.43;5.50;;;11.50;99.90;;;;;;5007904;28;20575;-72
2022/10/20 04:51:41;;;;;;;8.73;5.90;;;11.40;99.90;;;;;;5015091;28;20224;-70
2022/10/20 04:54:07;;;;;;;6.20;5.60;;;11.40;99.90;;;;;;4997815;28;20231;-72
2022/10/20 04:56:32;;;;;;;7.40;6.67;;;11.40;99.90;;;;;;5018983;28;20236;-71
2022/10/20 04:58:58;;;;;;;9.33;6.03;;;11.40;99.90;;;;;;5035091;28;20217;-72
2022/10/20 05:01:27;;;;;;;6.93;5.97;;;11.40;99.90;;;;;;5012757;28;20251;-72
2022/10/20 05:03:53;;;;;;;10.77;5.97;;;11.40;99.90;;;;;;5031210;28;20267;-71
2022/10/20 05:06:26;;;;;;;5.97;5.10;;;11.40;99.90;;;;;;5030611;28;20898;-72
2022/10/20 05:08:54;;;;;;;6.43;5.63;;;11.40;99.90;;;;;;5015254;28;20473;-71
2022/10/20 05:11:23;;;;;;;7.53;5.70;;;11.40;99.90;;;;;;5015482;28;20488;-71
2022/10/20 05:13:48;;;;;;;7.20;5.60;;;11.40;99.90;;;;;;5017347;28;20455;-72
2022/10/20 05:16:16;;;;;;;8.37;6.13;;;11.40;99.90;;;;;;5023913;28;20878;-71
2022/10/20 05:18:43;;;;;;;7.50;5.47;;;11.40;99.90;;;;;;5021353;28;20695;-73
2022/10/20 05:21:26;;;;;;;9.37;5.83;;;11.40;99.90;;;;;;5007715;28;21033;-72
2022/10/20 05:24:00;;;;;;;7.37;6.33;;;11.40;99.90;;;;;;5007782;28;20475;-71
2022/10/20 05:26:28;;;;;;;8.40;6.07;;;11.30;99.90;;;;;;5003480;28;20688;-72
2022/10/20 05:28:54;;;;;;;7.10;5.97;;;11.30;99.90;;;;;;4994198;28;20484;-72
2022/10/20 05:31:21;;;;;;;13.60;6.93;;;11.30;99.90;;;;;;5006184;28;20478;-72
2022/10/20 05:33:53;;;;;;;7.67;6.93;;;11.30;99.90;;;;;;5012558;28;20459;-71
2022/10/20 05:36:22;;;;;;;9.43;6.63;;;11.30;99.90;;;;;;5011405;28;20535;-72
2022/10/20 05:38:50;;;;;;;10.67;6.67;;;11.20;99.90;;;;;;5011825;28;21037;-72
2022/10/20 05:41:19;;;;;;;9.27;7.73;;;11.20;99.90;;;;;;5015369;28;21083;-71
2022/10/20 05:43:49;;;;;;;9.90;7.30;;;11.20;99.90;;;;;;5018289;28;20454;-71
2022/10/20 05:46:15;;;;;;;11.07;6.70;;;11.30;99.90;;;;;;5035897;28;20470;-71
2022/10/20 05:48:41;;;;;;;9.40;6.60;;;11.20;99.90;;;;;;5014040;28;20463;-72
2022/10/20 05:51:11;;;;;;;13.20;8.63;;;11.20;99.90;;;;;;5016807;28;21002;-73
2022/10/20 05:53:38;;;;;;;9.30;6.37;;;11.20;99.90;;;;;;5010556;28;20282;-72
2022/10/20 05:56:06;;;;;;;9.73;7.13;;;11.20;99.90;;;;;;5000123;28;20470;-71
2022/10/20 05:58:32;;;;;;;9.70;6.10;;;11.20;99.90;;;;;;4999708;28;20486;-73
2022/10/20 06:01:10;;;;;;;10.47;6.37;;;11.20;99.90;;;;;;4998247;28;20565;-73
2022/10/20 06:03:36;;;;;;;11.17;7.37;;;11.20;99.90;;;;;;5003526;28;20298;-73
2022/10/20 06:06:03;;;;;;;7.60;5.30;;;11.20;99.90;;;;;;5020321;28;20950;-73
2022/10/20 06:08:31;;;;;;;7.90;5.83;;;11.20;99.90;;;;;;5019929;28;20557;-73
2022/10/20 06:11:01;;;;;;;7.73;5.73;;;11.20;99.90;;;;;;5042146;28;20462;-73
2022/10/20 06:13:26;;;;;;;7.50;6.50;;;11.20;99.90;;;;;;5022658;28;20486;-73
2022/10/20 06:15:52;;;;;;;10.60;7.33;;;11.20;99.90;;;;;;5007262;28;20537;-73
2022/10/20 06:18:18;;;;;;;8.70;6.33;;;11.20;99.90;;;;;;5020917;28;20225;-72
2022/10/20 06:20:43;;;;;;;9.80;6.70;;;11.20;99.90;;;;;;4999383;28;20216;-74
2022/10/20 06:23:09;;;;;;;8.73;6.20;;;11.20;99.90;;;;;;5038626;28;20216;-72
2022/10/20 06:25:35;;;;;;;10.10;6.63;;;11.20;99.90;;;;;;5002331;28;20728;-72
2022/10/20 06:28:00;;;;;;;12.10;6.87;;;11.20;99.90;;;;;;5003948;28;20235;-73
2022/10/20 06:30:26;;;;;;;9.50;7.03;;;11.20;99.90;;;;;;5020705;28;20232;-73
2022/10/20 06:32:55;;;;;;;11.77;6.27;;;11.20;99.90;;;;;;5015956;28;20219;-71
2022/10/20 06:35:20;;;;;;;9.67;6.60;;;11.20;99.90;;;;;;5012973;28;20311;-72
2022/10/20 06:37:46;;;;;;;7.50;6.07;;;11.20;99.90;;;;;;4996938;28;20547;-71
2022/10/20 06:40:12;;;;;;;7.70;5.97;;;11.20;99.90;;;;;;5014194;28;20224;-72
2022/10/20 06:42:37;;;;;;;6.40;5.53;;;11.20;99.90;;;;;;5004511;28;20239;-72
2022/10/20 06:45:03;;;;;;;7.83;6.57;;;11.20;99.90;;;;;;5017312;28;20220;-70
2022/10/20 06:47:29;;;;;;;8.33;6.37;;;11.20;99.90;;;;;;5017870;28;20270;-73
2022/10/20 06:49:55;;;;;;;10.30;6.67;;;11.20;99.90;;;;;;5019792;28;21049;-72
2022/10/20 06:52:21;;;;;;;9.83;6.97;;;11.20;99.90;;;;;;5013809;28;20248;-74
2022/10/20 06:54:46;;;;;;;8.23;6.60;;;11.20;99.90;;;;;;5012537;28;20217;-73
2022/10/20 06:57:12;;;;;;;7.90;6.03;;;11.20;99.90;;;;;;5011220;28;20235;-72
2022/10/20 06:59:38;;;;;;;8.20;6.50;;;11.20;99.90;;;;;;5013842;28;20220;-74
2022/10/20 07:02:03;;;;;;;14.17;7.60;;;11.20;99.90;;;;;;5029958;28;20212;-72
2022/10/20 07:04:29;;;;;;;13.80;7.00;;;11.20;99.90;;;;;;5022439;28;20676;-73
2022/10/20 07:06:55;;;;;;;11.53;7.30;;;11.20;99.90;;;;;;5031566;28;20215;-73
2022/10/20 07:09:20;;;;;;;8.07;6.73;;;11.20;99.90;;;;;;5000808;28;20716;-73
2022/10/20 07:11:51;;;;;;;7.67;6.07;;;11.10;99.90;;;;;;5015850;28;20261;-73
2022/10/20 07:14:17;;;;;;;10.37;7.20;;;11.10;99.90;;;;;;5026130;28;20228;-72
2022/10/20 07:16:42;;;;;;;10.50;7.30;;;11.10;99.90;;;;;;5018535;28;20521;-72
2022/10/20 07:19:08;;;;;;;9.70;7.33;;;11.10;99.90;;;;;;4997837;28;20249;-72
2022/10/20 07:21:35;;;;;;;11.63;7.20;;;11.10;99.90;;;;;;5017666;28;20233;-72
2022/10/20 07:24:02;;;;;;;13.53;8.00;;;11.10;99.90;;;;;;4997831;28;20455;-72
2022/10/20 07:26:30;;;;;;;11.03;6.87;;;11.10;99.90;;;;;;5016096;28;20487;-73
2022/10/20 07:28:58;;;;;;;12.27;9.00;;;11.10;99.90;;;;;;5020186;28;20470;-70
2022/10/20 07:31:26;;;;;;;13.63;8.33;;;11.10;99.90;;;;;;5003821;28;20459;-73
2022/10/20 07:33:52;;;;;;;11.47;7.60;;;11.10;99.90;;;;;;5015671;28;20549;-73
2022/10/20 07:36:23;;;;;;;12.03;7.97;;;11.10;99.90;;;;;;5007818;28;20458;-73
2022/10/20 07:38:52;;;;;;;12.47;7.50;;;11.10;99.90;;;;;;5022743;28;20446;-73
2022/10/20 07:41:18;;;;;;;12.77;7.90;;;11.10;99.90;;;;;;5012943;28;20521;-73
2022/10/20 07:43:44;;;;;;;11.93;7.43;;;11.20;99.90;;;;;;5029744;28;20527;-73
2022/10/20 07:46:11;;;;;;;9.23;7.30;;;11.20;99.90;;;;;;5005852;28;20541;-73
2022/10/20 07:48:36;;;;;;;11.10;8.03;;;11.20;99.90;;;;;;5032115;28;20227;-74
2022/10/20 07:51:25;;;;;;;12.40;8.37;;;11.20;99.90;;;;;;5011565;28;21054;-72
2022/10/20 07:53:52;;;;;;;21.73;7.80;;;11.30;99.90;;;;;;5023968;28;20295;-73
2022/10/20 07:56:19;;;;;;;16.73;8.90;;;11.30;99.90;;;;;;5009705;28;20545;-72
2022/10/20 07:58:45;;;;;;;13.40;8.50;;;11.30;99.90;;;;;;5021666;28;20446;-70
2022/10/20 08:01:11;;;;;;;10.17;8.33;;;11.30;99.90;;;;;;5022271;28;20851;-71
2022/10/20 08:03:37;;;;;;;10.30;8.40;;;11.30;99.90;;;;;;5000885;28;20497;-73
2022/10/20 08:06:05;;;;;;;11.30;8.20;;;11.40;99.90;;;;;;5016086;28;20229;-73
2022/10/20 08:08:31;;;;;;;13.37;8.10;;;11.40;99.90;;;;;;5024315;28;20466;-74
2022/10/20 08:10:57;;;;;;;12.73;8.57;;;11.40;99.90;;;;;;5012022;28;20973;-74
2022/10/20 08:13:24;;;;;;;14.30;9.47;;;11.40;99.90;;;;;;5003205;28;20487;-73
2022/10/20 08:15:50;;;;;;;13.20;9.83;;;11.40;99.90;;;;;;5014432;28;20468;-73
2022/10/20 08:18:16;;;;;;;12.17;9.07;;;11.40;99.90;;;;;;5001633;28;20463;-73
2022/10/20 08:20:41;;;;;;;16.00;8.60;;;11.40;99.90;;;;;;5023157;28;20227;-74
2022/10/20 08:23:07;;;;;;;21.07;9.30;;;11.40;99.90;;;;;;5001734;28;20224;-73
2022/10/20 08:25:33;;;;;;;11.93;9.00;;;11.40;99.90;;;;;;5017886;28;20700;-74
2022/10/20 08:27:59;;;;;;;13.23;9.60;;;11.40;99.90;;;;;;5018855;28;20290;-73
2022/10/20 08:30:24;;;;;;;14.30;9.47;;;11.50;99.90;;;;;;5016746;28;20230;-74
2022/10/20 08:32:53;;;;;;;16.30;9.27;;;11.50;99.90;;;;;;5009799;28;20225;-72
2022/10/20 08:35:23;;;;;;;16.63;8.70;;;11.50;99.90;;;;;;5018757;28;20656;-73
2022/10/20 08:37:49;;;;;;;16.77;8.93;;;11.60;99.90;;;;;;5022991;28;20490;-73
2022/10/20 08:40:28;;;;;;;10.30;8.50;;;11.60;99.90;;;;;;5024714;28;20453;-72
2022/10/20 08:42:55;;;;;;;12.63;8.60;;;11.60;99.90;;;;;;5010403;28;20528;-72
2022/10/20 08:45:23;;;;;;;14.63;8.00;;;11.60;99.90;;;;;;5003862;28;20470;-73
2022/10/20 08:47:52;;;;;;;14.30;8.13;;;11.70;99.90;;;;;;5016683;28;20467;-73
2022/10/20 08:50:20;;;;;;;16.00;9.80;;;11.70;99.90;;;;;;5006544;28;20455;-73
2022/10/20 08:52:50;;;;;;;15.57;10.80;;;11.70;99.90;;;;;;5017638;28;20814;-72
2022/10/20 08:55:24;;;;;;;14.27;9.67;;;11.80;99.90;;;;;;4994034;28;20511;-73
2022/10/20 08:57:50;;;;;;;11.40;8.90;;;11.80;99.90;;;;;;5021334;28;20491;-73
2022/10/20 09:00:21;;;;;;;10.40;7.97;;;11.80;99.90;;;;;;5012983;28;20454;-72
2022/10/20 09:02:48;;;;;;;11.80;8.57;;;11.90;99.90;;;;;;5015944;28;20316;-73
2022/10/20 09:05:19;;;;;;;17.60;9.50;;;11.90;99.90;;;;;;5011474;28;20491;-72
2022/10/20 09:07:48;;;;;;;18.77;9.57;;;12.00;99.90;;;;;;5001722;28;20488;-72
2022/10/20 09:10:34;;;;;;;13.33;9.60;;;12.00;99.90;;;;;;5025636;28;20458;-73
2022/10/20 09:13:01;;;;;;;10.50;7.87;;;12.10;99.90;;;;;;5011414;28;20451;-73
2022/10/20 09:15:27;;;;;;;12.70;9.00;;;12.10;99.90;;;;;;5007593;28;20871;-73
2022/10/20 09:17:59;;;;;;;12.40;9.00;;;12.20;99.90;;;;;;5019802;28;20553;-74
2022/10/20 09:20:33;;;;;;;12.10;8.40;;;12.20;99.90;;;;;;4999520;28;20537;-73
2022/10/20 09:22:59;;;;;;;14.70;9.40;;;12.30;99.90;;;;;;5035892;28;20966;-73
2022/10/20 09:25:26;;;;;;;11.23;7.83;;;12.30;99.90;;;;;;5014738;28;20457;-73
2022/10/20 09:27:53;;;;;;;12.90;8.90;;;12.30;99.90;;;;;;5001608;28;20221;-72
2022/10/20 09:30:19;;;;;;;13.40;9.10;;;12.40;99.90;;;;;;5003970;28;20869;-73
2022/10/20 09:32:46;;;;;;;14.90;8.73;;;12.40;99.90;;;;;;5000313;28;20534;-73
2022/10/20 09:35:15;;;;;;;12.97;9.57;;;12.50;99.90;;;;;;5018740;28;20227;-71
2022/10/20 09:37:43;;;;;;;15.03;8.90;;;12.50;99.90;;;;;;5028098;28;20814;-73
2022/10/20 09:40:15;;;;;;;12.27;9.43;;;12.50;99.90;;;;;;5017592;28;20489;-73
2022/10/20 09:42:55;;;;;;;14.73;8.60;;;12.50;99.90;;;;;;4996044;28;20519;-72
2022/10/20 09:45:27;;;;;;;13.90;9.40;;;12.60;99.90;;;;;;5012718;28;20513;-71
2022/10/20 09:48:16;;;;;;;13.20;9.60;;;12.60;99.90;;;;;;5008295;28;20506;-72
2022/10/20 09:50:49;;;;;;;11.10;9.03;;;12.60;99.90;;;;;;5025391;28;20466;-72
2022/10/20 09:53:19;;;;;;;13.67;9.70;;;12.60;99.90;;;;;;5015480;28;20467;-72
2022/10/20 09:55:49;;;;;;;15.27;9.40;;;12.70;99.90;;;;;;5010115;28;20447;-72
2022/10/20 09:58:21;;;;;;;18.07;10.17;;;12.70;99.90;;;;;;5018058;28;20849;-70
2022/10/20 10:00:57;;;;;;;16.03;9.17;;;12.70;99.90;;;;;;4999083;28;20451;-73
2022/10/20 10:03:23;;;;;;;10.40;8.33;;;12.70;99.90;;;;;;5030237;28;20498;-72
2022/10/20 10:05:59;;;;;;;14.57;9.70;;;12.80;99.90;;;;;;5002411;28;20458;-74
2022/10/20 10:08:42;;;;;;;23.03;9.57;;;12.80;99.90;;;;;;5021261;28;20474;-72
2022/10/20 10:11:15;;;;;;;14.40;9.73;;;12.80;99.90;;;;;;5012200;28;20460;-73
2022/10/20 10:13:45;;;;;;;13.07;9.90;;;12.90;99.90;;;;;;5015254;28;20455;-73
2022/10/20 10:16:14;;;;;;;15.80;11.00;;;12.90;99.90;;;;;;5013738;28;20448;-73
2022/10/20 10:18:43;;;;;;;14.60;10.90;;;12.90;99.90;;;;;;5001539;28;20489;-72
2022/10/20 10:21:14;;;;;;;16.03;12.20;;;13.00;99.90;;;;;;5024606;28;20546;-72
2022/10/20 10:24:00;;;;;;;15.60;10.97;;;13.00;99.90;;;;;;5017748;28;20830;-72
2022/10/20 10:26:51;;;;;;;15.23;11.27;;;13.00;99.90;;;;;;5016752;28;21009;-73
2022/10/20 10:29:24;;;;;;;16.20;12.23;;;13.00;99.90;;;;;;5016018;28;20478;-73
2022/10/20 10:32:15;;;;;;;16.37;11.77;;;13.10;99.90;;;;;;4999127;28;20488;-71
2022/10/20 10:34:52;;;;;;;15.90;10.93;;;13.10;99.90;;;;;;4999863;28;20454;-72
2022/10/20 10:37:18;;;;;;;17.30;11.50;;;13.10;99.90;;;;;;5013234;28;20511;-72
2022/10/20 10:39:45;;;;;;;17.60;11.00;;;13.20;99.90;;;;;;5004368;28;20463;-72
2022/10/20 10:42:29;;;;;;;18.00;11.27;;;13.20;99.90;;;;;;5014709;28;20463;-72
2022/10/20 10:45:11;;;;;;;15.90;10.90;;;13.20;99.90;;;;;;5016822;28;20520;-73
2022/10/20 10:48:01;;;;;;;15.77;10.00;;;13.30;99.90;;;;;;4981900;28;20447;-72
2022/10/20 10:50:41;;;;;;;13.23;9.70;;;13.40;99.90;;;;;;5013440;28;20463;-73
2022/10/20 10:53:28;;;;;;;14.33;9.93;;;13.50;99.90;;;;;;5016561;28;20455;-71
2022/10/20 10:56:28;;;;;;;15.63;11.00;;;13.50;99.90;;;;;;5002486;28;20522;-71
2022/10/20 10:59:18;;;;;;;15.27;9.80;;;13.50;99.90;;;;;;5016085;28;20958;-73
2022/10/20 11:02:16;;;;;;;16.63;11.23;;;13.50;99.90;;;;;;5015274;28;20451;-71
2022/10/20 11:04:51;;;;;;;14.63;10.20;;;13.60;99.90;;;;;;5018497;28;20455;-72
2022/10/20 11:07:39;;;;;;;17.07;11.87;;;13.60;99.90;;;;;;5017276;28;20632;-72
2022/10/20 11:10:09;;;;;;;14.77;10.30;;;13.60;99.90;;;;;;4982420;28;20448;-72
2022/10/20 11:12:54;;;;;;;16.33;11.07;;;13.60;99.90;;;;;;5006571;28;20492;-71
2022/10/20 11:15:26;;;;;;;18.83;10.73;;;13.70;99.90;;;;;;5016782;28;20487;-72
2022/10/20 11:18:06;;;;;;;13.90;9.17;;;13.70;99.90;;;;;;5013876;28;20451;-74
2022/10/20 11:20:43;;;;;;;13.50;10.50;;;13.70;99.90;;;;;;5031934;28;20455;-71
2022/10/20 11:23:30;;;;;;;14.50;9.23;;;13.80;99.90;;;;;;5009753;28;20460;-71
2022/10/20 11:26:09;;;;;;;10.93;8.80;;;13.80;99.90;;;;;;5014253;28;20447;-72
2022/10/20 11:28:45;;;;;;;15.13;9.73;;;13.90;99.90;;;;;;5016869;28;20470;-72
2022/10/20 11:31:38;;;;;;;17.47;9.50;;;13.90;99.90;;;;;;5018481;28;21036;-72
2022/10/20 11:34:10;;;;;;;16.93;9.90;;;14.00;99.90;;;;;;5029896;28;20487;-72
2022/10/20 11:36:42;;;;;;;13.10;9.40;;;14.10;99.90;;;;;;5004648;28;20527;-72
2022/10/20 11:39:34;;;;;;;14.87;9.80;;;14.10;99.90;;;;;;5022233;28;20483;-73
2022/10/20 11:42:13;;;;;;;11.13;8.27;;;14.10;99.90;;;;;;5012456;28;20470;-74
2022/10/20 11:44:40;;;;;;;11.10;8.77;;;14.20;99.90;;;;;;5021672;28;20446;-73
2022/10/20 11:47:23;;;;;;;14.20;10.07;;;14.20;99.90;;;;;;5017079;28;20455;-72
2022/10/20 11:49:50;;;;;;;13.40;9.77;;;14.20;99.90;;;;;;5022176;28;20557;-71
2022/10/20 11:52:43;;;;;;;17.10;9.30;;;14.20;99.90;;;;;;5024339;28;20482;-72
2022/10/20 11:55:27;;;;;;;12.77;9.20;;;14.20;99.90;;;;;;5012309;28;20543;-72
2022/10/20 11:58:09;;;;;;;11.80;8.60;;;14.20;99.90;;;;;;5013705;28;20450;-73
2022/10/20 12:00:49;;;;;;;14.53;10.43;;;14.20;99.90;;;;;;5013980;28;20447;-73
2022/10/20 12:03:33;;;;;;;13.70;9.90;;;14.20;99.90;;;;;;5015755;28;20498;-73
2022/10/20 12:06:16;;;;;;;19.07;9.80;;;14.20;99.90;;;;;;5035404;28;20447;-73
2022/10/20 12:09:01;;;;;;;16.03;9.70;;;14.20;99.90;;;;;;5009587;28;21002;-74
2022/10/20 12:11:38;;;;;;;17.23;9.87;;;14.30;99.90;;;;;;5031763;28;20876;-74
2022/10/20 12:14:35;;;;;;;14.10;9.97;;;14.30;99.90;;;;;;5025345;28;20447;-73
2022/10/20 12:17:11;;;;;;;10.87;8.50;;;14.30;99.90;;;;;;5018589;28;20478;-72
2022/10/20 12:19:36;;;;;;;17.00;9.10;;;14.30;99.90;;;;;;5015057;28;20533;-73
2022/10/20 12:22:05;;;;;;;14.87;9.43;;;14.30;99.90;;;;;;5035207;28;20535;-72
2022/10/20 12:24:38;;;;;;;15.27;9.80;;;14.30;99.90;;;;;;5016184;28;20225;-72
2022/10/20 12:27:10;;;;;;;13.80;8.87;;;14.30;99.90;;;;;;5001841;28;20462;-72
2022/10/20 12:29:35;;;;;;;17.17;11.70;;;14.30;99.90;;;;;;5021868;28;20485;-73
2022/10/20 12:32:20;;;;;;;17.73;12.07;;;14.30;99.90;;;;;;5022108;28;20451;-73
2022/10/20 12:34:47;;;;;;;19.90;9.27;;;14.30;99.90;;;;;;5021969;28;20220;-72
2022/10/20 12:37:28;;;;;;;12.97;9.57;;;14.30;99.90;;;;;;5015474;28;20490;-71
2022/10/20 12:40:31;;;;;;;13.10;9.37;;;14.30;99.90;;;;;;5015968;28;20466;-72
2022/10/20 12:42:57;;;;;;;20.67;10.10;;;14.30;99.90;;;;;;5015626;28;21021;-73
2022/10/20 12:45:49;;;;;;;24.80;13.67;;;14.30;99.90;;;;;;5021029;28;20461;-72
2022/10/20 12:48:23;;;;;;;20.40;12.83;;;14.30;99.90;;;;;;5011960;28;20459;-71
2022/10/20 12:50:51;;;;;;;24.83;15.10;;;14.30;99.90;;;;;;5018951;28;20473;-72
2022/10/20 12:53:16;;;;;;;22.13;13.70;;;14.20;99.90;;;;;;5022846;28;20532;-73
2022/10/20 12:56:07;;;;;;;18.43;12.73;;;14.30;99.90;;;;;;5020349;28;20525;-72
2022/10/20 12:58:37;;;;;;;21.90;11.40;;;14.30;99.90;;;;;;5023473;28;20641;-72